Time;durP1;ratioP1;P1;durP2;ratioP2;P2;SDS_P1;SDS_P2;PMS_P1;PMS_P2;Temp;Humidity;BMP_temperature;BMP_pressure;BME280_temperature;BME280_humidity;BME280_pressure;Samples;Min_cycle;Max_cycle;Signal;HPM_P1;HPM_P2
2023/04/07 00:00:28;;;;;;;1.75;1.10;;;24.10;43.00;;;;;;5042896;28;20043;-63
2023/04/07 00:02:54;;;;;;;2.00;1.20;;;24.10;42.40;;;;;;5040881;28;20030;-63
2023/04/07 00:05:20;;;;;;;1.60;1.10;;;24.10;42.40;;;;;;5043253;28;20025;-63
2023/04/07 00:07:46;;;;;;;2.30;1.23;;;24.10;42.40;;;;;;5039041;28;20160;-63
2023/04/07 00:10:11;;;;;;;2.45;1.20;;;24.10;42.40;;;;;;5042984;28;20026;-63
2023/04/07 00:12:37;;;;;;;1.83;1.00;;;24.10;42.40;;;;;;5040524;28;20029;-63
2023/04/07 00:15:03;;;;;;;1.98;1.00;;;24.10;42.40;;;;;;5041512;28;20048;-63
2023/04/07 00:17:28;;;;;;;2.50;1.05;;;24.10;42.40;;;;;;5044087;28;20385;-63
2023/04/07 00:19:54;;;;;;;1.55;1.00;;;24.10;42.40;;;;;;5038674;28;20033;-63
2023/04/07 00:22:19;;;;;;;1.67;1.10;;;24.10;42.30;;;;;;5039946;28;20563;-63
2023/04/07 00:24:45;;;;;;;1.48;1.00;;;24.10;42.30;;;;;;5040250;28;20458;-63
2023/04/07 00:27:10;;;;;;;1.52;0.98;;;24.10;42.30;;;;;;5041068;28;20540;-63
2023/04/07 00:29:36;;;;;;;1.75;1.02;;;24.10;42.30;;;;;;5041282;28;20088;-63
2023/04/07 00:32:02;;;;;;;2.05;1.20;;;24.10;42.30;;;;;;5043255;28;20384;-63
2023/04/07 00:34:27;;;;;;;1.50;1.10;;;24.20;42.30;;;;;;5041039;28;20091;-63
2023/04/07 00:36:53;;;;;;;2.25;1.17;;;24.10;42.30;;;;;;5039854;28;20033;-63
2023/04/07 00:39:20;;;;;;;1.83;1.00;;;24.10;42.30;;;;;;5040798;28;20108;-62
2023/04/07 00:41:46;;;;;;;2.20;1.10;;;24.10;42.30;;;;;;5039247;28;20036;-63
2023/04/07 00:44:12;;;;;;;1.83;1.00;;;24.20;42.30;;;;;;5039705;28;20033;-63
2023/04/07 00:46:38;;;;;;;2.22;1.20;;;24.10;42.20;;;;;;5040891;28;20056;-63
2023/04/07 00:49:05;;;;;;;2.25;1.13;;;24.10;42.20;;;;;;5040198;28;20049;-63
2023/04/07 00:51:31;;;;;;;1.98;1.10;;;24.10;42.20;;;;;;5041182;28;20032;-63
2023/04/07 00:53:57;;;;;;;2.72;1.35;;;24.20;42.30;;;;;;5042290;28;20036;-63
2023/04/07 00:56:22;;;;;;;1.52;1.00;;;24.20;42.30;;;;;;5041434;28;20033;-62
2023/04/07 00:58:48;;;;;;;1.75;1.15;;;24.10;42.20;;;;;;5040019;28;20033;-63
2023/04/07 01:01:43;;;;;;;2.20;1.38;;;24.20;42.20;;;;;;5040666;28;20030;-62
2023/04/07 01:04:16;;;;;;;2.53;1.20;;;24.20;42.20;;;;;;5038984;28;20033;-63
2023/04/07 01:06:49;;;;;;;2.05;1.08;;;24.20;42.20;;;;;;5039649;28;20017;-63
2023/04/07 01:09:24;;;;;;;1.77;0.95;;;24.20;42.20;;;;;;5037756;28;20030;-63
2023/04/07 01:12:15;;;;;;;2.22;1.10;;;24.20;42.20;;;;;;5035948;28;20060;-63
2023/04/07 01:14:49;;;;;;;1.67;1.00;;;24.20;42.20;;;;;;5043819;28;20460;-64
2023/04/07 01:17:16;;;;;;;1.50;0.90;;;24.20;42.20;;;;;;5039395;28;20037;-63
2023/04/07 01:20:07;;;;;;;1.90;1.10;;;24.20;42.20;;;;;;5038590;28;20025;-63
2023/04/07 01:22:39;;;;;;;2.08;1.10;;;24.20;42.20;;;;;;5039987;28;20082;-63
2023/04/07 01:25:21;;;;;;;1.80;1.10;;;24.20;42.10;;;;;;5039472;28;20532;-63
2023/04/07 01:28:33;;;;;;;1.17;0.90;;;24.20;42.20;;;;;;5040120;28;20397;-62
2023/04/07 01:31:01;;;;;;;1.65;1.10;;;24.20;42.10;;;;;;5009497;28;20037;-63
2023/04/07 01:33:31;;;;;;;2.13;1.30;;;24.20;42.10;;;;;;5038418;28;20021;-63
2023/04/07 01:35:58;;;;;;;1.60;1.10;;;24.20;42.20;;;;;;5039822;28;20071;-63
2023/04/07 01:38:24;;;;;;;1.67;1.10;;;24.20;42.10;;;;;;5039175;28;20044;-62
2023/04/07 01:40:52;;;;;;;1.60;1.10;;;24.20;42.10;;;;;;5041153;28;20059;-63
2023/04/07 01:43:19;;;;;;;2.20;1.02;;;24.20;42.10;;;;;;5041401;28;20108;-63
2023/04/07 01:45:46;;;;;;;1.75;1.10;;;24.20;42.10;;;;;;5040126;28;20029;-63
2023/04/07 01:48:12;;;;;;;1.92;1.20;;;24.20;42.20;;;;;;5039311;28;20032;-63
2023/04/07 01:50:38;;;;;;;2.00;1.17;;;24.20;42.70;;;;;;5038374;28;20564;-63
2023/04/07 01:53:04;;;;;;;1.85;1.10;;;24.20;42.10;;;;;;5042227;28;20024;-63
2023/04/07 01:55:31;;;;;;;2.17;1.17;;;24.20;42.10;;;;;;5038674;28;20021;-63
2023/04/07 01:57:56;;;;;;;1.73;1.10;;;24.20;42.20;;;;;;5041289;28;20491;-63
2023/04/07 02:00:22;;;;;;;2.03;1.27;;;24.10;42.10;;;;;;5035656;28;20024;-63
2023/04/07 02:02:53;;;;;;;2.08;1.17;;;24.10;42.10;;;;;;5036759;28;20490;-63
2023/04/07 02:05:20;;;;;;;1.95;1.35;;;24.10;42.10;;;;;;5038430;28;20036;-63
2023/04/07 02:07:58;;;;;;;1.73;1.00;;;24.10;42.10;;;;;;5036082;28;20439;-63
2023/04/07 02:10:27;;;;;;;1.70;1.10;;;24.10;42.10;;;;;;5040096;28;20056;-63
2023/04/07 02:12:54;;;;;;;1.80;1.10;;;24.10;42.20;;;;;;5039323;28;20112;-63
2023/04/07 02:15:22;;;;;;;2.20;1.23;;;24.00;42.20;;;;;;5041256;28;20366;-63
2023/04/07 02:17:51;;;;;;;1.88;1.15;;;24.00;42.70;;;;;;5041470;28;20017;-62
2023/04/07 02:20:18;;;;;;;1.75;1.10;;;24.00;42.20;;;;;;5038812;28;20040;-62
2023/04/07 02:22:45;;;;;;;1.60;1.10;;;24.00;42.20;;;;;;5040472;28;20045;-61
2023/04/07 02:25:27;;;;;;;2.08;1.10;;;24.00;42.20;;;;;;5042525;28;20026;-62
2023/04/07 02:27:54;;;;;;;1.60;1.10;;;23.90;42.10;;;;;;5036768;28;20038;-62
2023/04/07 02:30:20;;;;;;;1.83;1.15;;;23.90;42.20;;;;;;5042099;28;20472;-61
2023/04/07 02:32:46;;;;;;;1.92;1.00;;;23.90;42.20;;;;;;5041894;28;20065;-62
2023/04/07 02:35:13;;;;;;;2.03;1.20;;;23.90;42.20;;;;;;5038180;28;20091;-61
2023/04/07 02:37:39;;;;;;;3.70;1.30;;;23.90;42.20;;;;;;5041253;28;20037;-63
2023/04/07 02:40:05;;;;;;;1.70;1.00;;;23.80;42.20;;;;;;5040943;28;20025;-62
2023/04/07 02:42:31;;;;;;;1.55;1.00;;;23.80;42.20;;;;;;5041875;28;20025;-62
2023/04/07 02:44:57;;;;;;;1.70;0.95;;;23.80;42.30;;;;;;5038793;28;20400;-61
2023/04/07 02:47:23;;;;;;;1.88;1.10;;;23.80;42.30;;;;;;5041588;28;20021;-62
2023/04/07 02:49:49;;;;;;;1.83;1.20;;;23.70;42.20;;;;;;5040670;28;20034;-62
2023/04/07 02:52:15;;;;;;;1.90;1.05;;;23.70;42.20;;;;;;5038997;28;20131;-61
2023/04/07 02:54:40;;;;;;;1.95;1.10;;;23.70;42.30;;;;;;5041870;28;20089;-61
2023/04/07 02:57:06;;;;;;;2.45;1.23;;;23.70;42.30;;;;;;5043453;28;20489;-61
2023/04/07 02:59:31;;;;;;;1.80;1.10;;;23.70;42.30;;;;;;5042151;28;20029;-61
2023/04/07 03:01:57;;;;;;;1.90;1.10;;;23.70;42.30;;;;;;5040628;28;20668;-61
2023/04/07 03:04:22;;;;;;;1.50;1.00;;;23.70;42.30;;;;;;5044354;28;20022;-62
2023/04/07 03:06:48;;;;;;;1.40;0.98;;;23.60;42.40;;;;;;5042330;28;20021;-63
2023/04/07 03:09:14;;;;;;;1.70;1.10;;;23.60;42.40;;;;;;5042097;28;20809;-61
2023/04/07 03:11:40;;;;;;;2.38;1.20;;;23.60;42.40;;;;;;5043230;28;20025;-63
2023/04/07 03:14:06;;;;;;;2.05;1.17;;;23.60;42.40;;;;;;5047895;28;20487;-62
2023/04/07 03:16:32;;;;;;;1.60;1.00;;;23.60;42.40;;;;;;5043036;28;20025;-64
2023/04/07 03:18:57;;;;;;;1.60;1.10;;;23.50;42.40;;;;;;5041833;28;20064;-62
2023/04/07 03:21:23;;;;;;;1.25;1.00;;;23.50;42.40;;;;;;5039851;28;20100;-62
2023/04/07 03:23:49;;;;;;;1.88;0.95;;;23.50;42.40;;;;;;5043402;28;20495;-63
2023/04/07 03:26:15;;;;;;;1.33;1.00;;;23.50;42.40;;;;;;5043076;28;20032;-63
2023/04/07 03:28:40;;;;;;;1.35;1.00;;;23.50;42.50;;;;;;5040194;28;20045;-63
2023/04/07 03:31:06;;;;;;;1.30;1.00;;;23.50;42.40;;;;;;5040322;28;20063;-64
2023/04/07 03:33:32;;;;;;;1.40;1.00;;;23.40;42.40;;;;;;5044876;28;20037;-63
2023/04/07 03:35:57;;;;;;;1.70;0.95;;;23.40;42.50;;;;;;5042016;28;20028;-64
2023/04/07 03:38:23;;;;;;;1.42;1.00;;;23.40;42.40;;;;;;5041681;28;20033;-63
2023/04/07 03:40:49;;;;;;;1.85;1.02;;;23.40;42.50;;;;;;5040452;28;20489;-62
2023/04/07 03:43:15;;;;;;;1.92;1.20;;;23.40;42.60;;;;;;5039497;28;20037;-62
2023/04/07 03:45:41;;;;;;;1.63;1.00;;;23.40;42.60;;;;;;5043754;28;20029;-62
2023/04/07 03:48:10;;;;;;;1.50;1.02;;;23.30;42.50;;;;;;5040620;28;20064;-62
2023/04/07 03:50:38;;;;;;;1.58;1.00;;;23.30;42.50;;;;;;5044291;28;20052;-62
2023/04/07 03:53:04;;;;;;;1.60;0.90;;;23.30;42.50;;;;;;5044539;28;20032;-63
2023/04/07 03:55:30;;;;;;;1.60;1.00;;;23.30;42.60;;;;;;5043267;28;20051;-62
2023/04/07 03:57:55;;;;;;;2.13;1.10;;;23.20;42.50;;;;;;5043832;28;20136;-64
2023/04/07 04:00:21;;;;;;;1.20;0.85;;;23.20;42.50;;;;;;5045075;28;20511;-63
2023/04/07 04:02:47;;;;;;;2.30;1.08;;;23.20;42.50;;;;;;5041818;28;20025;-63
2023/04/07 04:05:12;;;;;;;1.27;0.90;;;23.20;42.60;;;;;;5039203;28;20048;-62
2023/04/07 04:07:38;;;;;;;1.50;0.90;;;23.20;42.60;;;;;;5043543;28;20033;-63
2023/04/07 04:10:04;;;;;;;1.00;0.70;;;23.10;42.60;;;;;;5040499;28;20492;-62
2023/04/07 04:12:30;;;;;;;1.70;1.02;;;23.10;42.60;;;;;;5042378;28;20509;-62
2023/04/07 04:14:56;;;;;;;1.00;0.82;;;23.10;42.70;;;;;;5042464;28;20056;-62
2023/04/07 04:17:21;;;;;;;1.35;0.90;;;23.10;42.60;;;;;;5042293;28;20032;-62
2023/04/07 04:19:47;;;;;;;1.60;0.90;;;23.10;42.70;;;;;;5040405;28;20507;-63
2023/04/07 04:22:12;;;;;;;1.70;0.90;;;23.10;42.70;;;;;;5040976;28;20428;-62
2023/04/07 04:24:38;;;;;;;1.20;0.90;;;23.00;42.70;;;;;;5039994;28;20064;-62
2023/04/07 04:27:04;;;;;;;1.40;0.90;;;23.10;42.80;;;;;;5040408;28;20534;-63
2023/04/07 04:29:30;;;;;;;1.33;0.90;;;23.00;42.80;;;;;;5040210;28;20021;-62
2023/04/07 04:31:55;;;;;;;2.13;0.90;;;23.00;42.80;;;;;;5043226;28;20072;-62
2023/04/07 04:34:21;;;;;;;1.00;0.80;;;23.00;42.70;;;;;;5039632;28;20121;-63
2023/04/07 04:36:48;;;;;;;1.33;0.88;;;23.00;42.80;;;;;;5039348;28;20611;-63
2023/04/07 04:39:13;;;;;;;1.73;1.02;;;23.00;42.80;;;;;;5041145;28;20056;-63
2023/04/07 04:41:39;;;;;;;1.77;1.02;;;23.00;42.80;;;;;;5041131;28;20057;-63
2023/04/07 04:44:04;;;;;;;1.42;0.95;;;23.00;42.80;;;;;;5037827;28;20075;-63
2023/04/07 04:46:30;;;;;;;1.08;0.80;;;23.00;42.80;;;;;;5043804;28;20028;-63
2023/04/07 04:48:56;;;;;;;0.93;0.73;;;22.90;42.70;;;;;;5041916;28;20472;-63
2023/04/07 04:51:22;;;;;;;1.17;0.80;;;22.90;42.80;;;;;;5039246;28;20037;-63
2023/04/07 04:53:48;;;;;;;1.27;0.80;;;22.90;42.80;;;;;;5038934;28;20033;-62
2023/04/07 04:56:14;;;;;;;1.23;0.80;;;22.90;42.90;;;;;;5041154;28;20471;-64
2023/04/07 04:58:44;;;;;;;0.98;0.80;;;22.90;42.80;;;;;;5042397;28;20076;-64
2023/04/07 05:01:13;;;;;;;1.00;0.70;;;22.90;42.90;;;;;;5039291;28;20025;-62
2023/04/07 05:03:39;;;;;;;1.50;0.90;;;22.90;42.90;;;;;;5041865;28;20029;-63
2023/04/07 05:06:05;;;;;;;0.93;0.70;;;22.80;42.80;;;;;;5039904;28;20025;-63
2023/04/07 05:08:31;;;;;;;1.10;0.80;;;22.80;42.90;;;;;;5040413;28;20040;-63
2023/04/07 05:10:57;;;;;;;1.10;0.80;;;22.80;42.80;;;;;;5034821;28;20061;-63
2023/04/07 05:13:24;;;;;;;0.70;0.65;;;22.80;42.90;;;;;;5036798;28;20030;-62
2023/04/07 05:15:50;;;;;;;0.65;0.60;;;22.80;42.90;;;;;;5036530;28;20080;-62
2023/04/07 05:18:15;;;;;;;0.90;0.73;;;22.80;42.90;;;;;;5040577;28;20497;-63
2023/04/07 05:20:42;;;;;;;1.17;0.70;;;22.80;42.90;;;;;;5039973;28;20029;-63
2023/04/07 05:23:08;;;;;;;1.05;0.82;;;22.70;42.90;;;;;;5038463;28;20031;-63
2023/04/07 05:25:33;;;;;;;1.90;0.88;;;22.70;42.90;;;;;;5034848;28;20117;-62
2023/04/07 05:27:59;;;;;;;1.20;0.80;;;22.70;42.90;;;;;;5041406;28;20044;-63
2023/04/07 05:30:25;;;;;;;0.90;0.70;;;22.70;42.90;;;;;;5035716;28;20037;-63
2023/04/07 05:32:52;;;;;;;0.98;0.70;;;22.70;42.90;;;;;;5039820;28;20056;-63
2023/04/07 05:35:17;;;;;;;0.90;0.70;;;22.70;43.00;;;;;;5037690;28;20495;-63
2023/04/07 05:37:43;;;;;;;0.70;0.63;;;22.70;43.00;;;;;;5037635;28;20104;-63
2023/04/07 05:40:09;;;;;;;1.00;0.70;;;22.70;43.10;;;;;;5034756;28;20036;-63
2023/04/07 05:42:35;;;;;;;1.20;0.70;;;22.70;43.00;;;;;;5035075;28;20018;-63
2023/04/07 05:45:01;;;;;;;1.02;0.70;;;22.70;43.10;;;;;;5037810;28;20116;-63
2023/04/07 05:47:26;;;;;;;1.27;0.80;;;22.70;43.00;;;;;;5040327;28;20026;-63
2023/04/07 05:49:52;;;;;;;1.00;0.70;;;22.60;43.00;;;;;;5039669;28;20028;-63
2023/04/07 05:52:17;;;;;;;1.08;0.80;;;22.60;43.00;;;;;;5040537;28;20029;-63
2023/04/07 05:54:43;;;;;;;0.98;0.70;;;22.60;43.10;;;;;;5040872;28;20029;-63
2023/04/07 05:57:09;;;;;;;1.20;0.93;;;22.60;43.10;;;;;;5042227;28;20401;-63
2023/04/07 05:59:35;;;;;;;1.13;0.85;;;22.60;43.10;;;;;;5035818;28;20029;-63
2023/04/07 06:02:01;;;;;;;0.80;0.80;;;22.60;43.10;;;;;;5039049;28;20080;-64
2023/04/07 06:04:27;;;;;;;0.88;0.60;;;22.60;43.10;;;;;;5039188;28;20588;-63
2023/04/07 06:06:54;;;;;;;0.70;0.70;;;22.60;43.20;;;;;;5039322;28;20021;-63
2023/04/07 06:09:22;;;;;;;1.10;0.80;;;22.60;43.20;;;;;;5037484;28;20051;-63
2023/04/07 06:11:48;;;;;;;2.05;1.10;;;22.60;43.20;;;;;;5040262;28;20028;-63
2023/04/07 06:14:14;;;;;;;0.88;0.70;;;22.60;43.20;;;;;;5041412;28;20033;-64
2023/04/07 06:16:39;;;;;;;1.00;0.70;;;22.60;43.20;;;;;;5039880;28;20124;-63
2023/04/07 06:19:06;;;;;;;1.00;0.70;;;22.60;43.20;;;;;;5040178;28;20160;-64
2023/04/07 06:21:32;;;;;;;0.75;0.70;;;22.50;43.20;;;;;;5037611;28;20843;-63
2023/04/07 06:23:58;;;;;;;1.00;0.70;;;22.50;43.20;;;;;;5039411;28;20052;-64
2023/04/07 06:26:24;;;;;;;1.30;0.70;;;22.50;43.20;;;;;;5036454;28;20099;-64
2023/04/07 06:28:49;;;;;;;1.00;0.80;;;22.50;43.20;;;;;;5039264;28;20040;-63
2023/04/07 06:31:16;;;;;;;1.20;0.70;;;22.50;43.20;;;;;;5037865;28;20036;-64
2023/04/07 06:33:41;;;;;;;0.90;0.80;;;22.50;43.20;;;;;;5038603;28;20034;-64
2023/04/07 06:36:07;;;;;;;0.68;0.60;;;22.50;43.20;;;;;;5037072;28;20112;-63
2023/04/07 06:38:33;;;;;;;0.57;0.52;;;22.50;43.20;;;;;;5040101;28;20036;-63
2023/04/07 06:40:58;;;;;;;1.33;0.80;;;22.50;43.30;;;;;;5038436;28;20025;-64
2023/04/07 06:43:24;;;;;;;0.80;0.70;;;22.50;43.30;;;;;;5038637;28;20033;-64
2023/04/07 06:45:49;;;;;;;0.60;0.60;;;22.50;43.30;;;;;;5039138;28;20030;-63
2023/04/07 06:48:15;;;;;;;1.58;0.80;;;22.50;43.30;;;;;;5035967;28;20036;-63
2023/04/07 06:50:41;;;;;;;1.38;0.80;;;22.50;43.30;;;;;;5036458;28;20096;-63
2023/04/07 06:53:07;;;;;;;1.27;0.70;;;22.40;43.30;;;;;;5037175;28;20523;-63
2023/04/07 06:55:32;;;;;;;0.90;0.70;;;22.50;43.30;;;;;;5037255;28;20037;-63
2023/04/07 06:57:58;;;;;;;0.80;0.70;;;22.50;43.30;;;;;;5042513;28;20084;-63
2023/04/07 07:00:24;;;;;;;0.70;0.70;;;22.40;43.30;;;;;;5037994;28;20116;-63
2023/04/07 07:02:49;;;;;;;1.20;0.90;;;22.50;43.30;;;;;;5039140;28;20021;-63
2023/04/07 07:05:15;;;;;;;0.90;0.70;;;22.50;43.40;;;;;;5040135;28;20025;-63
2023/04/07 07:07:40;;;;;;;1.02;0.80;;;22.50;43.40;;;;;;5036649;28;20096;-63
2023/04/07 07:10:09;;;;;;;1.30;0.80;;;22.50;43.40;;;;;;5038819;28;20035;-63
2023/04/07 07:12:35;;;;;;;0.88;0.60;;;22.50;43.40;;;;;;5037301;28;20036;-63
2023/04/07 07:15:01;;;;;;;0.82;0.70;;;22.40;43.40;;;;;;5041915;28;20037;-63
2023/04/07 07:17:26;;;;;;;0.80;0.60;;;22.40;43.50;;;;;;5038549;28;20385;-63
2023/04/07 07:19:52;;;;;;;0.98;0.73;;;22.40;43.50;;;;;;5035287;28;20030;-63
2023/04/07 07:22:17;;;;;;;1.10;0.75;;;22.40;43.50;;;;;;5035441;28;20025;-64
2023/04/07 07:24:43;;;;;;;0.70;0.60;;;22.40;43.50;;;;;;5037699;28;20060;-63
2023/04/07 07:27:09;;;;;;;1.42;0.80;;;22.40;43.50;;;;;;5038154;28;20519;-63
2023/04/07 07:29:34;;;;;;;0.85;0.65;;;22.40;43.60;;;;;;5038142;28;20041;-63
2023/04/07 07:32:00;;;;;;;1.10;0.70;;;22.40;43.50;;;;;;5035908;28;20489;-63
2023/04/07 07:34:26;;;;;;;1.55;0.60;;;22.40;43.50;;;;;;5038900;28;20033;-63
2023/04/07 07:36:51;;;;;;;1.10;0.70;;;22.40;43.50;;;;;;5040519;28;20429;-63
2023/04/07 07:39:17;;;;;;;0.60;0.60;;;22.40;43.50;;;;;;5042175;28;20034;-63
2023/04/07 07:41:42;;;;;;;0.98;0.70;;;22.40;43.50;;;;;;5041430;28;20032;-63
2023/04/07 07:44:08;;;;;;;1.80;0.70;;;22.40;43.60;;;;;;5040058;28;20028;-63
2023/04/07 07:46:34;;;;;;;0.82;0.70;;;22.40;43.60;;;;;;5041834;28;20104;-63
2023/04/07 07:48:59;;;;;;;0.70;0.60;;;22.40;43.60;;;;;;5043853;28;20338;-63
2023/04/07 07:51:26;;;;;;;0.80;0.70;;;22.40;43.60;;;;;;5038860;28;20029;-64
2023/04/07 07:53:52;;;;;;;1.10;0.70;;;22.30;44.10;;;;;;5042271;28;20036;-63
2023/04/07 07:56:18;;;;;;;0.80;0.60;;;22.40;43.70;;;;;;5041325;28;20488;-63
2023/04/07 07:58:43;;;;;;;0.88;0.70;;;22.40;43.60;;;;;;5043415;28;20021;-63
2023/04/07 08:01:09;;;;;;;0.82;0.60;;;22.30;43.60;;;;;;5043788;28;20022;-63
2023/04/07 08:03:35;;;;;;;1.20;0.80;;;22.30;43.60;;;;;;5041952;28;20547;-63
2023/04/07 08:06:00;;;;;;;0.82;0.70;;;22.30;43.60;;;;;;5042310;28;20025;-63
2023/04/07 08:08:26;;;;;;;0.88;0.65;;;22.30;43.60;;;;;;5038446;28;20034;-63
2023/04/07 08:10:52;;;;;;;0.98;0.70;;;22.30;43.60;;;;;;5042276;28;20537;-63
2023/04/07 08:13:17;;;;;;;1.27;0.70;;;22.30;43.60;;;;;;5041577;28;20021;-64
2023/04/07 08:15:43;;;;;;;0.63;0.60;;;22.30;43.60;;;;;;5040894;28;20029;-63
2023/04/07 08:18:09;;;;;;;0.60;0.50;;;22.30;43.60;;;;;;5041488;28;20087;-63
2023/04/07 08:20:35;;;;;;;1.55;0.80;;;22.30;43.70;;;;;;5038262;28;20108;-63
2023/04/07 08:23:01;;;;;;;1.08;0.70;;;22.30;43.70;;;;;;5041004;28;20120;-63
2023/04/07 08:25:27;;;;;;;1.08;0.75;;;22.30;43.70;;;;;;5043692;28;20057;-63
2023/04/07 08:27:53;;;;;;;1.70;0.70;;;22.30;43.80;;;;;;5040717;28;20512;-64
2023/04/07 08:30:20;;;;;;;0.90;0.70;;;22.30;43.80;;;;;;5043325;28;20032;-63
2023/04/07 08:32:45;;;;;;;1.00;0.70;;;22.30;43.80;;;;;;5040446;28;20090;-63
2023/04/07 08:35:11;;;;;;;0.60;0.60;;;22.30;43.80;;;;;;5041384;28;20068;-63
2023/04/07 08:37:38;;;;;;;0.80;0.70;;;22.30;43.80;;;;;;5039481;28;20022;-63
2023/04/07 08:40:05;;;;;;;1.10;0.70;;;22.30;44.40;;;;;;5039758;28;20515;-64
2023/04/07 08:42:33;;;;;;;1.10;0.70;;;22.30;43.80;;;;;;5041053;28;20037;-64
2023/04/07 08:45:04;;;;;;;1.58;0.90;;;22.30;43.90;;;;;;5035626;28;20116;-64
2023/04/07 08:47:34;;;;;;;0.82;0.60;;;22.20;43.80;;;;;;5036071;28;20033;-63
2023/04/07 08:50:02;;;;;;;0.98;0.70;;;22.20;43.90;;;;;;5035027;28;20473;-63
2023/04/07 08:52:52;;;;;;;1.02;0.70;;;22.20;44.40;;;;;;5038813;28;20119;-64
2023/04/07 08:55:18;;;;;;;0.95;0.70;;;22.20;43.90;;;;;;5039016;28;20021;-63
2023/04/07 08:57:45;;;;;;;0.63;0.60;;;22.20;43.90;;;;;;5042508;28;20033;-64
2023/04/07 09:00:11;;;;;;;1.15;0.80;;;22.20;43.90;;;;;;5039880;28;20481;-64
2023/04/07 09:02:39;;;;;;;0.90;0.70;;;22.20;44.00;;;;;;5040787;28;20356;-64
2023/04/07 09:05:07;;;;;;;1.42;0.85;;;22.20;44.50;;;;;;5040361;28;20473;-64
2023/04/07 09:07:34;;;;;;;0.70;0.70;;;22.20;44.00;;;;;;5039414;28;20431;-64
2023/04/07 09:10:00;;;;;;;1.23;0.63;;;22.20;44.00;;;;;;5039529;28;20129;-64
2023/04/07 09:12:27;;;;;;;0.82;0.70;;;22.20;44.00;;;;;;5041089;28;20037;-64
2023/04/07 09:14:54;;;;;;;0.75;0.70;;;22.20;44.10;;;;;;5041705;28;20033;-64
2023/04/07 09:17:20;;;;;;;1.00;0.73;;;22.20;44.10;;;;;;5038649;28;20370;-63
2023/04/07 09:19:47;;;;;;;1.10;0.75;;;22.20;44.10;;;;;;5041447;28;20037;-63
2023/04/07 09:22:13;;;;;;;1.48;0.90;;;22.20;44.10;;;;;;5040482;28;20030;-64
2023/04/07 09:24:40;;;;;;;0.80;0.70;;;22.20;44.10;;;;;;5041354;28;20104;-64
2023/04/07 09:27:10;;;;;;;0.80;0.63;;;22.20;44.10;;;;;;5041591;28;20041;-64
2023/04/07 09:29:35;;;;;;;;;;;22.20;44.10;;;;;;5040304;28;20029;-63
2023/04/07 09:32:01;;;;;;;0.73;0.60;;;22.20;44.10;;;;;;5042253;28;19908;-64
2023/04/07 09:34:35;;;;;;;1.13;0.70;;;22.20;44.10;;;;;;5041158;28;20121;-63
2023/04/07 09:37:01;;;;;;;1.17;0.77;;;22.20;44.10;;;;;;5039739;28;20029;-63
2023/04/07 09:39:27;;;;;;;0.82;0.73;;;22.20;44.20;;;;;;5039234;28;20418;-64
2023/04/07 09:41:53;;;;;;;0.60;0.60;;;22.20;44.20;;;;;;5040155;28;20421;-63
2023/04/07 09:44:21;;;;;;;1.00;0.77;;;22.20;44.20;;;;;;5042188;28;20024;-64
2023/04/07 09:46:59;;;;;;;1.35;0.80;;;22.20;44.20;;;;;;5040477;28;20413;-63
2023/04/07 09:49:26;;;;;;;1.02;0.70;;;22.20;44.20;;;;;;5046552;28;20064;-63
2023/04/07 09:52:06;;;;;;;1.40;0.90;;;22.20;44.20;;;;;;5039633;28;20500;-64
2023/04/07 09:54:39;;;;;;;1.05;0.75;;;22.10;44.20;;;;;;5041100;28;20054;-63
2023/04/07 09:57:07;;;;;;;1.10;0.80;;;22.20;44.20;;;;;;5037488;28;20397;-64
2023/04/07 09:59:34;;;;;;;1.13;0.80;;;22.20;44.20;;;;;;5037660;28;20481;-62
2023/04/07 10:02:01;;;;;;;0.95;0.70;;;22.20;44.30;;;;;;5041005;28;20032;-63
2023/04/07 10:04:28;;;;;;;1.25;0.73;;;22.10;44.20;;;;;;5039643;28;20021;-63
2023/04/07 10:06:54;;;;;;;1.08;0.77;;;22.10;44.20;;;;;;5038432;28;20190;-63
2023/04/07 10:09:25;;;;;;;1.20;0.80;;;22.10;44.20;;;;;;5038502;28;20033;-63
2023/04/07 10:11:53;;;;;;;1.73;1.10;;;22.10;44.20;;;;;;5040137;28;20095;-63
2023/04/07 10:14:22;;;;;;;1.30;0.80;;;22.10;44.30;;;;;;5040198;28;20496;-64
2023/04/07 10:16:48;;;;;;;1.15;0.70;;;22.10;44.30;;;;;;5041669;28;20024;-64
2023/04/07 10:19:15;;;;;;;2.42;0.80;;;22.20;44.30;;;;;;5035160;28;20079;-64
2023/04/07 10:21:42;;;;;;;0.95;0.60;;;22.10;44.30;;;;;;5036919;28;20535;-63
2023/04/07 10:24:18;;;;;;;0.95;0.70;;;22.10;44.30;;;;;;5038082;28;20424;-63
2023/04/07 10:26:49;;;;;;;0.75;0.70;;;22.10;44.40;;;;;;5038601;28;20037;-63
2023/04/07 10:29:16;;;;;;;1.23;0.85;;;22.10;44.40;;;;;;5041266;28;20068;-63
2023/04/07 10:31:43;;;;;;;0.77;0.63;;;22.10;44.40;;;;;;5037252;28;20056;-63
2023/04/07 10:34:08;;;;;;;0.70;0.70;;;22.10;44.40;;;;;;5038681;28;20053;-64
2023/04/07 10:36:35;;;;;;;0.98;0.80;;;22.10;44.50;;;;;;5041945;28;20033;-64
2023/04/07 10:39:07;;;;;;;1.00;0.80;;;22.10;44.50;;;;;;5040927;28;20047;-64
2023/04/07 10:41:40;;;;;;;1.23;0.90;;;22.10;44.60;;;;;;5036798;28;20075;-64
2023/04/07 10:44:07;;;;;;;1.27;0.82;;;22.10;44.60;;;;;;5038573;28;20511;-64
2023/04/07 10:46:48;;;;;;;1.15;0.80;;;22.10;44.60;;;;;;5040196;28;20029;-65
2023/04/07 10:49:15;;;;;;;1.50;1.02;;;22.10;44.60;;;;;;5037558;28;20033;-64
2023/04/07 10:51:41;;;;;;;1.27;0.90;;;22.10;44.60;;;;;;5038242;28;20135;-64
2023/04/07 10:54:25;;;;;;;1.02;0.80;;;22.10;44.60;;;;;;5040056;28;20037;-64
2023/04/07 10:57:12;;;;;;;1.25;0.80;;;22.10;44.70;;;;;;5038255;28;20025;-64
2023/04/07 10:59:40;;;;;;;0.70;0.70;;;22.10;44.70;;;;;;5034931;28;20029;-64
2023/04/07 11:02:12;;;;;;;0.98;0.80;;;22.10;44.70;;;;;;5039152;28;20189;-64
2023/04/07 11:04:42;;;;;;;0.90;0.70;;;22.10;44.70;;;;;;5040963;28;20017;-64
2023/04/07 11:07:09;;;;;;;1.45;0.93;;;22.10;44.70;;;;;;5036747;28;20053;-64
2023/04/07 11:09:35;;;;;;;1.23;0.60;;;22.10;44.70;;;;;;5040357;28;20030;-64
2023/04/07 11:12:01;;;;;;;1.30;0.88;;;22.10;44.70;;;;;;5040937;28;20564;-64
2023/04/07 11:14:31;;;;;;;0.88;0.70;;;22.10;44.80;;;;;;5041803;28;20017;-64
2023/04/07 11:16:59;;;;;;;1.05;0.80;;;22.10;44.80;;;;;;5042802;28;20396;-64
2023/04/07 11:19:25;;;;;;;1.40;0.90;;;22.10;44.80;;;;;;5041034;28;20495;-64
2023/04/07 11:22:14;;;;;;;0.98;0.75;;;22.10;44.80;;;;;;5041205;28;20117;-64
2023/04/07 11:24:40;;;;;;;;;;;22.10;44.80;;;;;;5044024;28;20454;-64
2023/04/07 11:27:11;;;;;;;1.10;0.75;;;22.10;44.80;;;;;;5040692;28;19923;-64
2023/04/07 11:29:37;;;;;;;1.23;0.88;;;22.10;44.80;;;;;;5043603;28;20056;-64
2023/04/07 11:32:03;;;;;;;1.02;0.77;;;22.10;44.80;;;;;;5040291;28;20084;-64
2023/04/07 11:34:34;;;;;;;1.85;1.00;;;22.10;44.80;;;;;;5040158;28;20076;-62
2023/04/07 11:37:21;;;;;;;0.90;0.70;;;22.10;45.00;;;;;;5041046;28;20540;-64
2023/04/07 11:39:55;;;;;;;1.60;0.90;;;22.10;45.20;;;;;;5041800;28;20029;-64
2023/04/07 11:42:38;;;;;;;1.70;0.80;;;22.20;44.90;;;;;;5042091;28;20517;-63
2023/04/07 11:45:04;;;;;;;1.10;0.80;;;22.20;44.80;;;;;;5038845;28;20053;-66
2023/04/07 11:47:37;;;;;;;1.10;0.80;;;22.20;44.80;;;;;;5042888;28;20511;-65
2023/04/07 11:50:03;;;;;;;1.85;0.90;;;22.20;44.80;;;;;;5041351;28;20449;-65
2023/04/07 11:52:48;;;;;;;1.20;0.80;;;22.20;44.80;;;;;;5040119;28;20504;-64
2023/04/07 11:55:23;;;;;;;1.77;0.93;;;22.20;44.80;;;;;;5040763;28;20029;-63
2023/04/07 11:57:52;;;;;;;1.73;1.00;;;22.20;44.70;;;;;;5042165;28;20047;-64
2023/04/07 12:00:18;;;;;;;;;;;22.30;44.80;;;;;;5041481;28;20116;-64
2023/04/07 12:02:44;;;;;;;1.05;0.80;;;22.20;44.70;;;;;;5039953;28;20369;-64
2023/04/07 12:05:10;;;;;;;1.25;0.90;;;22.30;44.70;;;;;;5039360;28;20030;-64
2023/04/07 12:07:40;;;;;;;1.60;1.00;;;22.30;44.70;;;;;;5041740;28;20092;-64
2023/04/07 12:10:19;;;;;;;1.75;0.90;;;22.30;44.70;;;;;;5042511;28;20029;-63
2023/04/07 12:12:46;;;;;;;1.33;0.90;;;22.30;44.70;;;;;;5042627;28;20143;-63
2023/04/07 12:15:12;;;;;;;1.42;0.88;;;22.30;44.70;;;;;;5045005;28;20029;-63
2023/04/07 12:17:45;;;;;;;1.50;0.80;;;22.30;44.70;;;;;;5043961;28;20503;-64
2023/04/07 12:20:11;;;;;;;1.20;0.90;;;22.30;44.70;;;;;;5041875;28;20143;-63
2023/04/07 12:22:36;;;;;;;1.35;0.93;;;22.30;44.70;;;;;;5040220;28;20060;-63
2023/04/07 12:25:02;;;;;;;1.50;1.02;;;22.30;44.70;;;;;;5040338;28;20025;-63
2023/04/07 12:27:28;;;;;;;1.05;0.68;;;22.30;44.70;;;;;;5043375;28;20037;-63
2023/04/07 12:29:53;;;;;;;1.25;0.95;;;22.30;44.70;;;;;;5042526;28;20049;-64
2023/04/07 12:32:19;;;;;;;0.98;0.80;;;22.30;44.70;;;;;;5038895;28;20370;-64
2023/04/07 12:34:46;;;;;;;0.98;0.70;;;22.30;44.70;;;;;;5041096;28;20392;-63
2023/04/07 12:37:12;;;;;;;1.10;0.70;;;22.30;44.70;;;;;;5041676;28;20068;-63
2023/04/07 12:39:38;;;;;;;1.27;0.80;;;22.30;44.70;;;;;;5040767;28;20068;-63
2023/04/07 12:42:04;;;;;;;1.42;0.80;;;22.30;44.80;;;;;;5040804;28;20071;-63
2023/04/07 12:44:30;;;;;;;1.05;0.80;;;22.30;44.80;;;;;;5042937;28;20021;-64
2023/04/07 12:46:56;;;;;;;1.20;0.80;;;22.30;45.30;;;;;;5038345;28;20032;-64
2023/04/07 12:49:21;;;;;;;1.20;0.90;;;22.40;44.80;;;;;;5039466;28;20125;-64